Time;durP1;ratioP1;P1;durP2;ratioP2;P2;SDS_P1;SDS_P2;PMS_P1;PMS_P2;Temp;Humidity;BMP_temperature;BMP_pressure;BME280_temperature;BME280_humidity;BME280_pressure;Samples;Min_cycle;Max_cycle;Signal;HPM_P1;HPM_P2
2021/12/01 00:01:06;;;;;;;2.85;1.00;;;;;;;16.28;28.32;96444.84;5016982;28;20122;-78
2021/12/01 00:03:32;;;;;;;3.13;0.90;;;;;;;16.42;28.16;96458.44;5034223;28;20029;-78
2021/12/01 00:05:58;;;;;;;3.70;0.90;;;;;;;16.70;27.57;96462.72;5031211;28;20034;-78
2021/12/01 00:08:25;;;;;;;3.17;1.00;;;;;;;15.84;28.89;96491.03;5029810;28;20103;-78
2021/12/01 00:10:51;;;;;;;6.80;1.42;;;;;;;16.50;27.80;96474.53;5016585;28;20044;-78
2021/12/01 00:13:20;;;;;;;2.90;1.15;;;;;;;15.23;29.27;96470.06;5048024;28;20030;-78
2021/12/01 00:15:48;;;;;;;3.90;1.50;;;;;;;15.01;29.83;96494.41;5017070;28;20496;-78
2021/12/01 00:18:14;;;;;;;5.78;1.45;;;;;;;14.60;30.74;96490.13;5034390;28;20034;-78
2021/12/01 00:20:41;;;;;;;5.78;1.20;;;;;;;15.70;28.94;96507.81;5034580;28;20044;-78
2021/12/01 00:23:08;;;;;;;2.83;0.93;;;;;;;15.75;29.33;96520.41;5034916;28;20045;-78
2021/12/01 00:25:39;;;;;;;2.90;1.02;;;;;;;15.44;30.01;96529.84;5030229;28;20099;-78
2021/12/01 00:28:07;;;;;;;3.30;1.02;;;;;;;15.00;30.37;96494.84;5030976;28;20478;-78
2021/12/01 00:30:33;;;;;;;2.42;0.93;;;;;;;16.06;28.96;96510.06;5033031;28;20042;-78
2021/12/01 00:32:59;;;;;;;3.75;1.20;;;;;;;16.44;28.30;96520.53;5019997;28;20033;-78
2021/12/01 00:35:27;;;;;;;2.55;1.15;;;;;;;16.26;28.97;96525.56;5029946;28;20040;-78
2021/12/01 00:37:54;;;;;;;5.07;1.50;;;;;;;15.24;30.63;96535.22;5029115;28;20025;-78
2021/12/01 00:40:20;;;;;;;2.67;1.65;;;;;;;16.16;29.38;96554.19;5029380;28;20037;-78
2021/12/01 00:42:47;;;;;;;2.50;1.33;;;;;;;16.24;29.19;96538.28;5033758;28;20033;-78
2021/12/01 00:45:18;;;;;;;6.28;1.52;;;;;;;15.67;29.88;96541.06;5033036;28;20060;-78
2021/12/01 00:47:54;;;;;;;3.47;1.52;;;;;;;15.36;30.39;96551.28;5025979;28;20034;-78
2021/12/01 00:50:34;;;;;;;2.20;0.90;;;;;;;16.62;28.71;96552.75;5024852;28;20072;-78
2021/12/01 00:53:03;;;;;;;5.43;1.65;;;;;;;15.96;29.03;96561.63;5029339;28;20042;-78
2021/12/01 00:55:30;;;;;;;5.55;2.20;;;;;;;16.30;28.47;96556.75;5029983;28;20037;-78
2021/12/01 00:57:57;;;;;;;4.88;1.40;;;;;;;16.06;29.11;96573.72;5033618;28;20041;-78
2021/12/01 01:00:27;;;;;;;4.95;1.60;;;;;;;16.01;29.13;96576.97;5022534;28;20025;-78
2021/12/01 01:02:56;;;;;;;4.30;1.17;;;;;;;16.98;27.52;96573.88;5025207;28;20033;-78
2021/12/01 01:05:22;;;;;;;3.03;1.10;;;;;;;17.26;26.77;96572.59;5020635;28;20053;-78
2021/12/01 01:07:48;;;;;;;5.55;1.92;;;;;;;17.45;26.64;96584.91;5033083;28;20034;-78
2021/12/01 01:18:28;;;;;;;5.82;1.45;;;;;;;18.37;25.11;96594.88;5028605;28;20052;-78
2021/12/01 01:20:55;;;;;;;3.42;1.10;;;;;;;17.81;25.46;96594.09;5031424;28;20037;-77
2021/12/01 01:23:21;;;;;;;4.65;1.00;;;;;;;17.71;25.48;96597.91;5024554;28;20397;-78
2021/12/01 01:25:47;;;;;;;5.35;1.30;;;;;;;17.48;25.63;96609.03;5032336;28;20037;-78
2021/12/01 01:28:13;;;;;;;7.38;1.63;;;;;;;16.78;26.47;96606.28;5032526;28;20038;-78
2021/12/01 01:30:39;;;;;;;4.20;1.00;;;;;;;16.37;27.16;96597.41;5013207;28;20490;-78
2021/12/01 01:33:05;;;;;;;4.25;1.40;;;;;;;16.85;26.17;96619.25;5026705;28;20076;-78
2021/12/01 01:35:31;;;;;;;3.42;1.02;;;;;;;16.39;26.22;96622.69;5032071;28;20393;-78
2021/12/01 01:37:58;;;;;;;4.93;1.27;;;;;;;16.02;27.17;96631.13;5031932;28;20034;-78
2021/12/01 01:40:24;;;;;;;3.67;1.10;;;;;;;16.11;26.93;96642.47;5032533;28;20026;-78
2021/12/01 01:42:50;;;;;;;3.42;0.75;;;;;;;17.43;25.20;96638.06;5031716;28;20036;-78
2021/12/01 01:45:17;;;;;;;5.63;1.13;;;;;;;16.64;25.85;96653.63;5032120;28;20052;-78
2021/12/01 01:48:04;;;;;;;5.22;1.23;;;;;;;16.10;26.37;96613.22;5026638;28;20072;-78
2021/12/01 01:50:38;;;;;;;4.47;1.00;;;;;;;15.06;28.55;96647.94;5031337;28;20030;-78
2021/12/01 01:53:13;;;;;;;5.47;1.20;;;;;;;16.93;25.73;96651.19;5031328;28;20041;-78
2021/12/01 01:55:43;;;;;;;2.85;0.88;;;;;;;16.91;25.30;96665.47;5030241;28;20060;-78
2021/12/01 01:58:10;;;;;;;5.32;1.33;;;;;;;17.09;25.31;96656.88;5027885;28;20041;-78
2021/12/01 02:00:45;;;;;;;6.32;1.42;;;;;;;16.71;26.01;96661.81;5030295;28;20056;-78
2021/12/01 02:03:15;;;;;;;3.30;0.70;;;;;;;16.82;25.74;96645.03;5030367;28;20567;-78
2021/12/01 02:05:41;;;;;;;4.47;0.93;;;;;;;15.89;26.83;96622.59;5025268;28;20057;-78
2021/12/01 02:08:16;;;;;;;8.48;1.00;;;;;;;15.43;27.39;96664.56;5029592;28;20428;-79
2021/12/01 02:10:48;;;;;;;4.13;1.15;;;;;;;15.48;27.14;96668.91;5025937;28;20029;-78
2021/12/01 02:13:16;;;;;;;3.00;0.98;;;;;;;15.96;26.91;96677.06;5030969;28;20625;-78
2021/12/01 02:15:44;;;;;;;3.03;1.02;;;;;;;16.83;25.51;96686.19;5031490;28;20029;-78
2021/12/01 02:18:11;;;;;;;2.45;0.70;;;;;;;17.64;24.49;96686.84;5029512;28;20056;-78
2021/12/01 02:20:37;;;;;;;2.78;0.82;;;;;;;16.85;24.94;96691.31;5029802;28;20037;-78
2021/12/01 02:23:03;;;;;;;3.50;0.95;;;;;;;15.56;27.42;96696.09;5028421;28;20043;-78
2021/12/01 02:25:30;;;;;;;4.68;0.80;;;;;;;15.36;27.23;96692.28;5035208;28;20029;-78
2021/12/01 02:27:57;;;;;;;5.10;0.80;;;;;;;15.89;26.77;96711.16;5033798;28;20032;-78
2021/12/01 02:30:23;;;;;;;3.28;0.73;;;;;;;14.47;29.11;96728.06;5032691;28;20033;-79
2021/12/01 02:32:52;;;;;;;4.30;0.88;;;;;;;14.13;29.94;96723.47;5033749;28;20025;-78
2021/12/01 02:35:19;;;;;;;3.50;0.90;;;;;;;15.61;27.51;96728.06;5033779;28;20033;-78
2021/12/01 02:37:45;;;;;;;2.85;0.85;;;;;;;16.39;26.38;96734.28;5034105;28;20034;-78
2021/12/01 02:40:12;;;;;;;5.25;0.90;;;;;;;16.36;26.25;96742.66;5034489;28;20038;-78
2021/12/01 02:42:38;;;;;;;3.10;1.25;;;;;;;16.04;26.62;96742.22;5031073;28;20038;-78
2021/12/01 02:45:04;;;;;;;3.50;0.90;;;;;;;15.97;27.26;96758.91;5034473;28;20111;-79
2021/12/01 02:47:31;;;;;;;3.72;0.88;;;;;;;15.64;27.77;96728.00;5033486;28;20037;-78
2021/12/01 02:49:57;;;;;;;4.82;1.27;;;;;;;16.23;26.97;96770.09;5033175;28;20521;-78
2021/12/01 02:52:23;;;;;;;5.32;1.20;;;;;;;15.74;27.59;96773.38;5035698;28;20486;-78
2021/12/01 02:54:49;;;;;;;4.32;1.20;;;;;;;16.04;26.98;96773.44;5035083;28;20061;-78
2021/12/01 02:57:16;;;;;;;1.95;0.70;;;;;;;17.10;25.40;96778.47;5033230;28;20493;-78
2021/12/01 02:59:43;;;;;;;2.55;0.70;;;;;;;17.77;24.83;96788.50;5034980;28;20040;-78
2021/12/01 03:02:10;;;;;;;1.63;0.80;;;;;;;17.74;24.14;96769.13;5032502;28;20513;-78
2021/12/01 03:04:38;;;;;;;2.08;0.70;;;;;;;17.02;25.61;96804.72;5034587;28;20033;-78
2021/12/01 03:07:07;;;;;;;1.80;0.80;;;;;;;17.56;24.72;96791.63;5035141;28;20052;-78
2021/12/01 03:09:33;;;;;;;4.93;0.88;;;;;;;17.02;25.50;96793.63;5033048;28;20527;-79
2021/12/01 03:11:59;;;;;;;0.82;0.60;;;;;;;17.16;25.00;96792.63;5034301;28;20044;-78
2021/12/01 03:14:25;;;;;;;6.43;1.17;;;;;;;16.81;24.91;96816.09;5034673;28;20061;-78
2021/12/01 03:16:53;;;;;;;2.17;0.50;;;;;;;18.02;23.90;96821.38;5034505;28;20388;-79
2021/12/01 03:19:19;;;;;;;1.23;0.70;;;;;;;16.73;25.60;96822.94;5034231;28;20551;-78
2021/12/01 03:21:46;;;;;;;2.30;0.90;;;;;;;16.58;25.58;96824.31;5021196;28;20426;-78
2021/12/01 03:24:13;;;;;;;3.20;0.80;;;;;;;17.46;24.58;96816.75;5018326;28;20080;-78
2021/12/01 03:26:40;;;;;;;2.90;0.50;;;;;;;17.45;24.44;96840.94;5035049;28;20037;-78
2021/12/01 03:29:07;;;;;;;1.15;0.45;;;;;;;18.44;23.28;96830.91;5035337;28;20044;-78
2021/12/01 03:31:34;;;;;;;2.20;0.73;;;;;;;18.50;22.97;96835.59;5027847;28;20109;-78
2021/12/01 03:34:00;;;;;;;1.77;0.65;;;;;;;18.18;23.44;96835.38;5035554;28;20532;-78
2021/12/01 03:36:26;;;;;;;1.77;0.88;;;;;;;16.86;25.48;96862.75;5034486;28;20477;-78
2021/12/01 03:38:52;;;;;;;2.88;0.60;;;;;;;16.52;25.80;96848.13;5035956;28;20036;-78
2021/12/01 03:41:18;;;;;;;1.92;0.77;;;;;;;16.74;25.48;96854.97;5042009;28;20033;-78
2021/12/01 03:43:44;;;;;;;1.05;0.50;;;;;;;16.27;26.62;96867.75;5037726;28;20036;-78
2021/12/01 03:46:10;;;;;;;1.38;0.45;;;;;;;15.94;27.01;96876.00;5045549;28;20045;-78
2021/12/01 03:48:36;;;;;;;3.00;0.68;;;;;;;16.06;26.62;96894.84;5034832;28;20025;-78
2021/12/01 03:51:03;;;;;;;0.65;0.52;;;;;;;17.82;24.23;96879.66;5035023;28;20064;-78
2021/12/01 03:53:29;;;;;;;0.90;0.52;;;;;;;18.08;23.61;96878.03;5033431;28;20095;-79
2021/12/01 03:55:55;;;;;;;0.95;0.50;;;;;;;18.04;23.75;96879.28;5029574;28;20060;-78
2021/12/01 03:58:21;;;;;;;2.92;0.47;;;;;;;17.38;24.83;96890.19;5034353;28;20486;-78
2021/12/01 04:00:47;;;;;;;1.60;0.60;;;;;;;18.59;23.09;96877.53;5037402;28;20025;-79
2021/12/01 04:03:13;;;;;;;0.57;0.47;;;;;;;17.71;23.95;96895.66;5032104;28;20022;-78
2021/12/01 04:05:39;;;;;;;2.08;0.60;;;;;;;17.62;24.29;96902.97;5031783;28;20440;-78
2021/12/01 04:08:07;;;;;;;3.58;2.25;;;;;;;17.36;24.92;96909.25;5031579;28;20592;-79
2021/12/01 04:10:34;;;;;;;1.67;0.50;;;;;;;16.49;26.02;96915.41;5033675;28;20051;-78
2021/12/01 04:13:00;;;;;;;2.63;0.70;;;;;;;16.91;25.58;96914.19;5023898;28;20506;-78
2021/12/01 04:15:26;;;;;;;1.10;0.60;;;;;;;16.81;25.68;96901.22;5032610;28;20033;-78
2021/12/01 04:17:53;;;;;;;1.27;0.80;;;;;;;16.45;26.19;96926.50;5033289;28;20121;-78
2021/12/01 04:20:19;;;;;;;1.13;0.60;;;;;;;17.41;25.01;96928.22;5030834;28;20069;-78
2021/12/01 04:22:47;;;;;;;0.65;0.60;;;;;;;17.97;24.22;96927.38;5033463;28;20029;-78
2021/12/01 04:25:13;;;;;;;3.75;0.65;;;;;;;16.94;25.64;96913.38;5032436;28;20034;-78
2021/12/01 04:27:40;;;;;;;0.60;0.50;;;;;;;18.58;23.46;96925.19;5029626;28;20108;-78
2021/12/01 04:30:10;;;;;;;0.98;0.63;;;;;;;18.12;23.91;96930.72;5034154;28;20071;-78
2021/12/01 04:32:37;;;;;;;1.48;0.60;;;;;;;17.53;24.74;96939.53;5034214;28;20477;-78
2021/12/01 04:35:04;;;;;;;2.30;0.70;;;;;;;17.66;24.49;96946.13;5034107;28;20113;-79
2021/12/01 04:37:30;;;;;;;3.30;0.82;;;;;;;17.16;25.10;96948.72;5020051;28;20036;-79
2021/12/01 04:39:56;;;;;;;2.75;0.73;;;;;;;17.82;24.46;96948.25;5033751;28;20056;-79
2021/12/01 04:42:22;;;;;;;1.20;0.60;;;;;;;17.77;24.53;96946.75;5034050;28;20022;-79
2021/12/01 04:44:48;;;;;;;0.60;0.50;;;;;;;17.77;24.62;96948.72;5032335;28;20041;-78
2021/12/01 04:47:18;;;;;;;0.93;0.75;;;;;;;17.43;24.92;96946.00;5042097;28;20059;-78
2021/12/01 04:49:44;;;;;;;1.00;0.70;;;;;;;17.15;25.21;96957.47;5034095;28;20029;-79
2021/12/01 04:52:11;;;;;;;1.65;0.63;;;;;;;17.27;25.35;96954.91;5034534;28;20044;-78
2021/12/01 04:54:38;;;;;;;4.53;1.05;;;;;;;18.36;23.22;96960.88;5019642;28;20030;-78
2021/12/01 04:57:06;;;;;;;4.07;0.90;;;;;;;18.03;23.91;96961.81;5029361;28;20037;-78
2021/12/01 04:59:34;;;;;;;1.65;0.65;;;;;;;18.46;23.21;96967.50;5034162;28;20057;-78
2021/12/01 05:02:00;;;;;;;0.93;0.60;;;;;;;17.45;24.67;96973.34;5028879;28;20034;-78
2021/12/01 05:04:27;;;;;;;2.15;0.50;;;;;;;18.54;23.08;96969.72;5032538;28;20026;-78
2021/12/01 05:06:53;;;;;;;2.00;0.70;;;;;;;17.82;23.66;96978.78;5033349;28;20454;-78
2021/12/01 05:09:20;;;;;;;2.63;0.70;;;;;;;18.91;22.40;96971.44;5033701;28;20036;-78
2021/12/01 05:11:46;;;;;;;0.70;0.47;;;;;;;19.52;22.10;96971.03;5036343;28;20037;-79
2021/12/01 05:14:13;;;;;;;1.25;0.50;;;;;;;19.86;21.64;96963.13;5034074;28;20041;-78
2021/12/01 05:16:41;;;;;;;1.67;0.73;;;;;;;20.19;21.21;96964.72;5030400;28;20041;-78
2021/12/01 05:19:08;;;;;;;1.02;0.65;;;;;;;20.34;20.85;96968.78;5022970;28;20056;-78
2021/12/01 05:21:34;;;;;;;4.43;1.10;;;;;;;20.59;20.69;96962.56;5026884;28;20132;-79
2021/12/01 05:24:02;;;;;;;1.42;0.65;;;;;;;19.52;21.78;96971.03;5023028;28;20052;-79
2021/12/01 05:26:28;;;;;;;1.80;1.10;;;;;;;18.68;23.05;96985.38;5028538;28;20116;-78
2021/12/01 05:28:54;;;;;;;1.23;0.70;;;;;;;18.60;23.14;96979.16;5023863;28;20158;-78
2021/12/01 05:31:21;;;;;;;3.33;1.15;;;;;;;17.68;24.26;96976.22;5020965;28;20075;-78
2021/12/01 05:33:47;;;;;;;2.60;0.70;;;;;;;16.70;25.47;96959.56;5023987;28;20040;-78
2021/12/01 05:36:13;;;;;;;0.80;0.65;;;;;;;17.66;24.54;96973.09;5025871;28;20064;-78
2021/12/01 05:38:40;;;;;;;2.42;0.80;;;;;;;17.29;24.70;96960.06;5023286;28;20125;-78
2021/12/01 05:41:06;;;;;;;0.88;0.60;;;;;;;17.60;24.35;96964.44;5026066;28;20492;-79
2021/12/01 05:43:32;;;;;;;1.85;0.70;;;;;;;18.36;23.39;96969.22;5030538;28;20060;-77
2021/12/01 05:45:59;;;;;;;3.95;0.90;;;;;;;18.96;22.38;96970.94;5023305;28;20137;-79
2021/12/01 05:48:25;;;;;;;2.50;1.17;;;;;;;20.02;21.29;96970.72;5022014;28;20076;-78
2021/12/01 05:50:51;;;;;;;1.40;0.70;;;;;;;18.87;22.61;96962.38;5021072;28;20493;-78
2021/12/01 05:53:17;;;;;;;1.60;0.77;;;;;;;18.27;23.41;96971.75;5023255;28;20090;-78
2021/12/01 05:55:43;;;;;;;3.30;2.03;;;;;;;20.08;21.27;96955.84;5020634;28;20038;-78
2021/12/01 05:58:10;;;;;;;1.13;0.70;;;;;;;18.80;22.59;96970.06;5026177;28;20037;-78
2021/12/01 06:00:36;;;;;;;3.58;1.42;;;;;;;18.62;22.97;96960.03;5024715;28;20073;-79
2021/12/01 06:03:02;;;;;;;2.47;0.98;;;;;;;19.59;21.82;96951.41;5026457;28;20029;-77
2021/12/01 06:05:28;;;;;;;2.97;1.00;;;;;;;19.34;21.89;96951.91;5031980;28;20064;-78
2021/12/01 06:07:54;;;;;;;1.42;0.98;;;;;;;19.98;21.28;96965.22;5032175;28;20041;-78
2021/12/01 06:10:22;;;;;;;2.17;1.10;;;;;;;20.46;20.57;96964.50;5031278;28;20029;-78
2021/12/01 06:12:48;;;;;;;1.55;1.10;;;;;;;20.42;20.59;96975.72;5031749;28;20029;-79
2021/12/01 06:15:17;;;;;;;4.60;1.33;;;;;;;21.39;19.47;96983.16;5031076;28;20069;-79
2021/12/01 06:17:44;;;;;;;4.90;1.77;;;;;;;22.02;18.85;96975.69;5027485;28;20041;-79
2021/12/01 06:20:12;;;;;;;2.17;1.15;;;;;;;22.06;18.53;96979.16;5029510;28;20032;-79
2021/12/01 06:22:39;;;;;;;5.07;2.35;;;;;;;21.49;19.40;96971.69;5028584;28;20048;-78
2021/12/01 06:25:06;;;;;;;3.42;1.80;;;;;;;20.78;19.82;96977.63;5029396;28;20138;-78
2021/12/01 06:27:32;;;;;;;2.30;1.48;;;;;;;20.61;20.05;96982.44;5030560;28;22174;-78
2021/12/01 06:29:58;;;;;;;3.72;1.63;;;;;;;21.38;19.46;96987.94;5031254;28;20061;-78
2021/12/01 06:32:24;;;;;;;5.03;2.75;;;;;;;21.84;19.15;96979.03;5023370;28;20033;-78
2021/12/01 06:34:50;;;;;;;13.60;7.53;;;;;;;21.64;19.29;96980.41;5030756;28;20033;-78
2021/12/01 06:37:18;;;;;;;6.30;2.78;;;;;;;22.33;18.63;96985.09;5033169;28;20030;-78
2021/12/01 06:39:45;;;;;;;4.18;2.92;;;;;;;22.46;18.42;96994.25;5032350;28;20022;-78
2021/12/01 06:42:12;;;;;;;3.65;2.20;;;;;;;21.89;18.77;96988.88;5032465;28;20522;-78
2021/12/01 06:44:38;;;;;;;4.57;1.90;;;;;;;22.18;18.76;96989.56;5032449;28;20025;-78
2021/12/01 06:47:04;;;;;;;5.10;2.13;;;;;;;22.15;18.61;96992.47;5032538;28;20037;-78
2021/12/01 06:49:30;;;;;;;4.32;2.30;;;;;;;22.77;18.48;96993.66;5031389;28;20037;-78
2021/12/01 06:51:57;;;;;;;6.85;3.70;;;;;;;22.94;18.02;96993.03;5013671;28;20041;-78
2021/12/01 06:54:23;;;;;;;4.88;2.80;;;;;;;21.89;18.81;96995.25;5029553;28;20077;-78
2021/12/01 06:56:49;;;;;;;6.32;2.30;;;;;;;22.67;18.11;96996.38;5032715;28;20038;-79
2021/12/01 06:59:15;;;;;;;8.68;3.83;;;;;;;23.02;17.96;97004.78;5032785;28;20037;-78
2021/12/01 07:01:42;;;;;;;4.72;1.70;;;;;;;22.18;18.87;96992.34;5032532;28;20033;-78
2021/12/01 07:04:08;;;;;;;5.68;2.50;;;;;;;22.13;18.94;96995.72;5032019;28;20033;-79
2021/12/01 07:06:34;;;;;;;7.65;2.45;;;;;;;21.86;19.32;96995.34;5030364;28;20489;-78
2021/12/01 07:09:01;;;;;;;4.93;2.58;;;;;;;22.76;18.36;97001.28;5031543;28;20025;-78
2021/12/01 07:11:30;;;;;;;4.90;2.17;;;;;;;23.33;17.90;97003.66;5019479;28;20164;-78
2021/12/01 07:13:56;;;;;;;5.75;2.80;;;;;;;23.48;17.57;97001.16;5025168;28;20112;-79
2021/12/01 07:16:23;;;;;;;6.90;2.60;;;;;;;23.34;17.60;96999.66;5035342;28;20029;-79
2021/12/01 07:18:49;;;;;;;5.50;3.15;;;;;;;23.24;17.94;97002.81;5034884;28;20154;-79
2021/12/01 07:21:15;;;;;;;9.60;3.70;;;;;;;22.63;18.27;96992.13;5036020;28;20053;-79
2021/12/01 07:23:41;;;;;;;6.45;2.83;;;;;;;22.52;18.47;96992.44;5036162;28;20037;-78
2021/12/01 07:26:08;;;;;;;7.40;3.60;;;;;;;21.21;19.69;96984.44;5036238;28;20021;-79
2021/12/01 07:28:34;;;;;;;5.10;2.50;;;;;;;21.45;19.80;96976.56;5035981;28;20034;-79
2021/12/01 07:31:02;;;;;;;4.15;2.47;;;;;;;21.16;19.85;96981.41;5034708;28;20084;-79
2021/12/01 07:33:28;;;;;;;3.50;1.95;;;;;;;21.76;19.41;96972.06;5035692;28;20490;-78
2021/12/01 07:35:54;;;;;;;7.25;2.35;;;;;;;21.81;19.32;96970.72;5035654;28;20034;-79
2021/12/01 07:38:20;;;;;;;5.72;2.40;;;;;;;22.22;18.95;96965.06;5034618;28;20112;-79
2021/12/01 07:40:46;;;;;;;5.90;2.20;;;;;;;22.74;18.34;96958.97;5035058;28;20038;-79
2021/12/01 07:43:13;;;;;;;5.00;2.80;;;;;;;22.60;18.23;96959.41;5035760;28;20108;-78
2021/12/01 07:45:43;;;;;;;6.68;2.47;;;;;;;22.08;18.72;96957.13;5035506;28;20065;-78
2021/12/01 07:48:12;;;;;;;5.18;2.28;;;;;;;22.32;18.71;96952.75;5035518;28;20033;-79
2021/12/01 07:50:38;;;;;;;4.38;2.40;;;;;;;22.28;18.64;96948.50;5019407;28;20033;-79
2021/12/01 07:53:04;;;;;;;6.47;2.50;;;;;;;22.96;18.11;96940.22;5034960;28;20042;-79
2021/12/01 07:55:31;;;;;;;7.90;2.78;;;;;;;23.66;17.65;96934.03;5033923;28;20116;-79
2021/12/01 07:57:57;;;;;;;6.85;2.78;;;;;;;24.21;17.17;96931.50;5024265;28;20551;-78
2021/12/01 08:00:23;;;;;;;7.40;2.45;;;;;;;24.54;16.86;96926.91;5035147;28;20049;-78
2021/12/01 08:02:49;;;;;;;5.13;2.45;;;;;;;24.88;16.32;96911.84;5033347;28;20038;-79
2021/12/01 08:05:15;;;;;;;5.25;2.60;;;;;;;23.46;17.32;96916.00;5033988;28;20041;-78
2021/12/01 08:07:41;;;;;;;5.55;2.63;;;;;;;24.02;17.45;96911.78;5035219;28;20030;-79
2021/12/01 08:10:10;;;;;;;6.80;2.75;;;;;;;24.41;16.65;96915.81;5035159;28;20034;-78
2021/12/01 08:12:38;;;;;;;4.22;2.03;;;;;;;24.31;16.56;96913.44;5034768;28;20038;-78
2021/12/01 08:15:06;;;;;;;3.25;1.83;;;;;;;24.49;16.67;96907.88;5035139;28;20029;-78
2021/12/01 08:17:32;;;;;;;4.07;2.35;;;;;;;24.48;16.63;96904.28;5034703;28;20033;-78
2021/12/01 08:19:58;;;;;;;6.15;2.15;;;;;;;24.39;16.48;96903.47;5035225;28;20478;-78
2021/12/01 08:22:28;;;;;;;5.70;2.08;;;;;;;24.38;16.79;96904.75;5033435;28;20124;-78
2021/12/01 08:24:57;;;;;;;5.82;1.90;;;;;;;24.22;17.07;96897.38;5034364;28;20037;-78
2021/12/01 08:27:24;;;;;;;3.83;1.45;;;;;;;24.67;16.53;96889.03;5032931;28;20394;-78
2021/12/01 08:29:50;;;;;;;4.82;1.88;;;;;;;25.21;16.18;96887.47;5034717;28;20041;-78
2021/12/01 08:32:16;;;;;;;3.75;1.60;;;;;;;25.53;15.71;96886.06;5034344;28;20043;-79
2021/12/01 08:34:47;;;;;;;4.15;1.50;;;;;;;25.00;15.73;96891.25;5034832;28;20036;-78
2021/12/01 08:37:15;;;;;;;5.03;1.45;;;;;;;25.12;16.01;96896.72;5034679;28;20041;-78
2021/12/01 08:39:42;;;;;;;7.25;2.58;;;;;;;25.37;15.78;96893.53;5034647;28;20051;-79
2021/12/01 08:42:10;;;;;;;7.18;2.05;;;;;;;25.45;15.50;96896.84;5027012;28;20545;-78
2021/12/01 08:44:36;;;;;;;5.47;2.70;;;;;;;25.39;15.48;96891.03;5033698;28;20400;-78
2021/12/01 08:47:02;;;;;;;2.63;1.92;;;;;;;25.53;15.46;96888.88;5032738;28;20037;-78
2021/12/01 08:49:29;;;;;;;4.93;2.97;;;;;;;25.62;15.47;96894.47;5015429;28;20033;-79
2021/12/01 08:51:55;;;;;;;1.67;1.00;;;;;;;25.53;15.60;96889.66;5031850;28;20033;-79
2021/12/01 08:54:21;;;;;;;2.88;0.90;;;;;;;25.81;14.97;96891.09;5024228;28;20029;-79
2021/12/01 08:56:47;;;;;;;2.70;1.42;;;;;;;25.66;15.31;96895.84;5034212;28;20037;-79
2021/12/01 08:59:14;;;;;;;2.97;1.00;;;;;;;25.71;15.19;96902.88;5033615;28;20100;-78
2021/12/01 09:01:40;;;;;;;2.85;1.20;;;;;;;25.67;15.23;96900.22;5033926;28;20095;-79
2021/12/01 09:04:06;;;;;;;2.08;1.10;;;;;;;25.59;15.20;96895.41;5034360;28;20120;-78
2021/12/01 09:06:32;;;;;;;3.97;1.85;;;;;;;25.86;15.14;96886.88;5034369;28;20086;-78
2021/12/01 09:08:58;;;;;;;11.05;4.20;;;;;;;25.61;15.37;96876.81;5034163;28;20220;-78
2021/12/01 09:11:24;;;;;;;3.08;1.27;;;;;;;25.82;15.04;96869.38;5032156;28;20037;-78
2021/12/01 09:13:50;;;;;;;5.93;3.35;;;;;;;25.93;15.54;96861.22;5033572;28;20025;-78
2021/12/01 09:16:16;;;;;;;6.07;2.17;;;;;;;25.67;15.30;96860.84;5033349;28;20044;-78
2021/12/01 09:18:42;;;;;;;2.35;1.25;;;;;;;25.99;15.32;96860.09;5033461;28;20045;-78
2021/12/01 09:21:09;;;;;;;2.42;1.05;;;;;;;26.03;15.00;96859.91;5033665;28;20029;-79
2021/12/01 09:23:35;;;;;;;5.82;1.08;;;;;;;25.75;15.30;96862.09;5034182;28;20040;-78
2021/12/01 09:26:01;;;;;;;1.98;0.80;;;;;;;25.45;14.90;96854.69;5032721;28;20390;-78
2021/12/01 09:28:28;;;;;;;1.15;0.90;;;;;;;25.53;15.55;96857.94;5033543;28;20477;-78
2021/12/01 09:30:57;;;;;;;1.83;0.90;;;;;;;25.49;15.55;96855.28;5033566;28;20513;-78
2021/12/01 09:33:24;;;;;;;3.88;0.90;;;;;;;25.82;15.30;96849.69;5033429;28;20033;-79
2021/12/01 09:35:51;;;;;;;1.70;0.80;;;;;;;25.94;15.02;96849.50;5033249;28;20512;-79
2021/12/01 09:38:18;;;;;;;2.58;1.17;;;;;;;26.16;15.15;96851.28;5030367;28;20486;-78
2021/12/01 09:40:49;;;;;;;2.50;0.95;;;;;;;26.14;15.12;96837.69;5033607;28;20115;-78
2021/12/01 09:43:17;;;;;;;1.67;0.88;;;;;;;26.09;14.80;96833.47;5022634;28;20026;-78
2021/12/01 09:45:43;;;;;;;1.05;0.60;;;;;;;25.01;15.87;96820.59;5014906;28;20036;-78
2021/12/01 09:48:09;;;;;;;15.80;8.02;;;;;;;25.17;15.93;96828.66;5030603;28;20485;-78
2021/12/01 09:50:36;;;;;;;4.97;1.08;;;;;;;25.59;15.19;96817.47;5032191;28;20456;-78
2021/12/01 09:53:02;;;;;;;2.72;1.67;;;;;;;26.07;15.19;96813.47;5033223;28;20068;-78
2021/12/01 09:55:28;;;;;;;2.65;1.90;;;;;;;26.05;14.80;96824.44;5033320;28;20025;-78
2021/12/01 09:57:59;;;;;;;3.35;1.40;;;;;;;26.01;15.02;96806.97;5026620;28;20037;-79
2021/12/01 10:00:25;;;;;;;3.95;1.88;;;;;;;25.74;14.61;96803.53;5032456;28;20033;-78
2021/12/01 10:02:52;;;;;;;19.02;8.38;;;;;;;25.56;15.23;96786.72;5028452;28;20037;-78
2021/12/01 10:05:50;;;;;;;28.80;15.70;;;;;;;26.10;14.95;96792.09;5032549;28;20113;-79
2021/12/01 10:08:28;;;;;;;4.15;2.40;;;;;;;26.59;14.56;96797.19;5031379;28;20042;-79
2021/12/01 10:10:56;;;;;;;3.22;1.70;;;;;;;26.66;14.72;96794.78;5031903;28;20025;-79
2021/12/01 10:13:31;;;;;;;2.42;1.48;;;;;;;26.65;14.73;96800.91;5031711;28;20080;-79
2021/12/01 10:16:01;;;;;;;3.97;1.13;;;;;;;27.13;14.78;96801.56;5031250;28;20037;-79
2021/12/01 10:18:29;;;;;;;3.50;1.33;;;;;;;27.28;14.36;96793.91;5017051;28;20066;-78
2021/12/01 10:21:06;;;;;;;3.97;1.27;;;;;;;27.06;14.52;96777.38;5031955;28;20044;-79
2021/12/01 10:23:34;;;;;;;6.47;3.55;;;;;;;27.45;14.79;96780.09;5033044;28;20091;-79
2021/12/01 10:26:13;;;;;;;2.65;1.30;;;;;;;27.68;14.28;96785.59;5032630;28;20041;-78
2021/12/01 10:28:48;;;;;;;7.00;2.28;;;;;;;27.93;13.66;96781.38;5032416;28;20088;-79
2021/12/01 10:31:15;;;;;;;4.45;2.30;;;;;;;27.49;13.73;96772.25;5027776;28;20515;-78
2021/12/01 10:33:42;;;;;;;2.78;1.20;;;;;;;27.46;13.54;96776.81;5026331;28;20109;-78
2021/12/01 10:36:10;;;;;;;1.63;1.13;;;;;;;27.51;14.48;96775.34;5021914;28;20041;-79
2021/12/01 10:38:45;;;;;;;5.63;3.33;;;;;;;27.35;13.48;96760.44;5032800;28;20485;-79
2021/12/01 10:41:14;;;;;;;6.00;1.92;;;;;;;27.45;13.86;96752.69;5031484;28;20029;-79
2021/12/01 10:43:46;;;;;;;2.95;1.40;;;;;;;27.22;14.04;96753.56;5024468;28;20092;-79
2021/12/01 10:46:16;;;;;;;2.35;1.10;;;;;;;27.34;13.97;96747.63;5019403;28;20108;-79
2021/12/01 10:48:45;;;;;;;4.20;1.63;;;;;;;27.40;14.03;96739.28;5017041;28;20030;-78
2021/12/01 10:51:31;;;;;;;2.22;1.10;;;;;;;27.14;14.13;96741.91;5016850;28;20038;-79
2021/12/01 10:53:58;;;;;;;3.67;2.22;;;;;;;27.28;13.79;96737.53;5028533;28;20140;-78
2021/12/01 10:56:24;;;;;;;3.83;2.25;;;;;;;27.42;14.23;96743.16;5030487;28;20100;-79
2021/12/01 10:58:50;;;;;;;2.80;2.22;;;;;;;27.87;14.01;96726.88;5031892;28;20033;-79
2021/12/01 11:01:25;;;;;;;2.80;1.50;;;;;;;27.69;13.92;96708.19;5036684;28;20563;-79
2021/12/01 11:03:52;;;;;;;2.60;1.40;;;;;;;27.65;14.47;96704.81;5034496;28;20129;-79
2021/12/01 11:06:21;;;;;;;4.18;1.20;;;;;;;27.46;14.48;96709.16;5036124;28;20490;-79
2021/12/01 11:08:57;;;;;;;1.77;0.80;;;;;;;27.31;14.35;96694.25;5036508;28;20460;-79
2021/12/01 11:11:44;;;;;;;0.80;0.70;;;;;;;27.42;14.53;96689.59;5036298;28;20033;-78
2021/12/01 11:14:16;;;;;;;1.20;0.90;;;;;;;27.60;14.25;96685.00;5036392;28;20053;-79
2021/12/01 11:16:43;;;;;;;2.55;1.10;;;;;;;27.08;14.88;96676.25;5035184;28;20083;-79
2021/12/01 11:19:11;;;;;;;2.67;1.00;;;;;;;27.27;14.01;96688.84;5036523;28;20431;-79
2021/12/01 11:21:39;;;;;;;1.30;0.93;;;;;;;27.42;15.27;96688.06;5035942;28;20493;-79
2021/12/01 11:24:08;;;;;;;2.42;1.10;;;;;;;27.22;15.40;96680.28;5035335;28;20046;-79
2021/12/01 11:26:35;;;;;;;2.13;1.13;;;;;;;26.60;15.13;96681.28;5036211;28;20040;-78
2021/12/01 11:29:08;;;;;;;3.47;1.35;;;;;;;26.61;15.19;96682.84;5029113;28;20033;-79
2021/12/01 11:31:42;;;;;;;2.75;0.98;;;;;;;26.96;15.52;96674.50;5035384;28;20041;-79
2021/12/01 11:34:14;;;;;;;1.63;0.82;;;;;;;26.93;15.41;96666.25;5035887;28;20029;-78
2021/12/01 11:36:49;;;;;;;1.88;1.10;;;;;;;26.97;15.00;96666.84;5035137;28;20034;-78
2021/12/01 11:39:25;;;;;;;0.85;0.70;;;;;;;27.08;15.25;96664.19;5035653;28;20030;-78
2021/12/01 11:41:53;;;;;;;2.53;0.90;;;;;;;27.15;15.06;96658.94;5036119;28;20040;-79
2021/12/01 11:44:20;;;;;;;1.55;0.70;;;;;;;27.48;14.95;96664.31;5023361;28;20092;-78